createdAt,value
2018-09-12T00:00:14.865Z,77.08
2018-09-12T00:01:24.707Z,76.98
2018-09-12T00:02:34.756Z,76.88
2018-09-12T00:03:44.601Z,76.5
2018-09-12T00:04:54.484Z,76.21
2018-09-12T00:06:04.597Z,76.31
2018-09-12T00:07:14.169Z,75.92
2018-09-12T00:08:24.013Z,75.73
2018-09-12T00:09:33.591Z,76.01
2018-09-12T00:10:43.710Z,76.01
2018-09-12T00:11:53.560Z,75.73
2018-09-12T00:13:03.140Z,75.92
2018-09-12T00:14:12.709Z,75.54
2018-09-12T00:15:22.291Z,75.54
2018-09-12T00:16:31.606Z,75.34
2018-09-12T00:17:41.447Z,74.76
2018-09-12T00:18:50.754Z,75.15
2018-09-12T00:20:00.651Z,74.96
2018-09-12T00:21:10.622Z,74.96
2018-09-12T00:22:20.508Z,74.09
2018-09-12T00:23:30.351Z,74.29
2018-09-12T00:24:40.194Z,74.19
2018-09-12T00:25:50.068Z,74.38
2018-09-12T00:26:59.922Z,74.48
2018-09-12T00:28:09.768Z,73.99
2018-09-12T00:29:19.610Z,73.8
2018-09-12T00:30:29.192Z,74.29
2018-09-12T00:31:39.312Z,73.71
2018-09-12T00:32:49.437Z,73.22
2018-09-12T00:33:59.008Z,73.61
2018-09-12T00:35:08.613Z,73.42
2018-09-12T00:36:18.464Z,73.42
2018-09-12T00:37:27.773Z,73.13
2018-09-12T00:38:37.637Z,73.61
2018-09-12T00:39:46.940Z,73.22
2018-09-12T00:40:57.085Z,73.42
2018-09-12T00:42:07.201Z,73.03
2018-09-12T00:43:16.767Z,73.42
2018-09-12T00:44:26.340Z,72.74
2018-09-12T00:45:35.914Z,72.45
2018-09-12T00:46:45.489Z,72.26
2018-09-12T00:47:54.797Z,72.36
2018-09-12T00:49:04.646Z,71.97
2018-09-12T00:50:14.769Z,72.26
2018-09-12T00:51:24.367Z,72.07
2018-09-12T00:52:34.483Z,71.78
2018-09-12T00:53:44.325Z,71.97
2018-09-12T00:54:54.443Z,72.03
2018-09-12T00:56:04.289Z,71.75
2018-09-12T00:57:14.142Z,71.26
2018-09-12T00:58:24.321Z,71.36
2018-09-12T00:59:34.166Z,71.08
2018-09-12T01:00:43.742Z,70.78
2018-09-12T01:01:53.322Z,70.07
2018-09-12T01:03:03.469Z,70.01
2018-09-12T01:04:13.310Z,69.69
2018-09-12T01:05:22.883Z,69.31
2018-09-12T01:06:32.457Z,69.21
2018-09-12T01:07:42.573Z,69.12
2018-09-12T01:08:51.878Z,68.92
2018-09-12T01:10:01.729Z,68.54
2018-09-12T01:11:11.574Z,68.92
2018-09-12T01:12:21.419Z,67.96
2018-09-12T01:13:31.000Z,68.54
2018-09-12T01:14:40.842Z,68.15
2018-09-12T01:15:50.679Z,68.06
2018-09-12T01:16:59.985Z,68.35
2018-09-12T01:18:10.097Z,68.06
2018-09-12T01:19:19.944Z,67.77
2018-09-12T01:20:29.278Z,68.06
2018-09-12T01:21:39.448Z,68.35
2018-09-12T01:22:49.289Z,68.63
2018-09-12T01:23:59.128Z,68.25
2018-09-12T01:25:08.708Z,68.21
2018-09-12T01:26:18.280Z,68.15
2018-09-12T01:27:28.391Z,68.15
2018-09-12T01:28:38.237Z,68.63
2018-09-12T01:29:47.552Z,68.79
2018-09-12T01:30:57.124Z,68.7
2018-09-12T01:32:06.708Z,68.89
2018-09-12T01:33:16.289Z,68.31
2018-09-12T01:34:26.444Z,68.51
2018-09-12T01:35:36.286Z,68.12
2018-09-12T01:36:46.129Z,68.37
2018-09-12T01:37:56.302Z,68.31
2018-09-12T01:39:05.954Z,68.21
2018-09-12T01:40:16.092Z,68.31
2018-09-12T01:41:25.671Z,68.12
2018-09-12T01:42:35.784Z,67.99
2018-09-12T01:43:45.661Z,68.08
2018-09-12T01:44:55.233Z,67.8
2018-09-12T01:46:04.835Z,67.64
2018-09-12T01:47:14.409Z,67.51
2018-09-12T01:48:23.988Z,67.13
2018-09-12T01:49:33.831Z,66.93
2018-09-12T01:50:44.014Z,66.84
2018-09-12T01:51:53.592Z,66.46
2018-09-12T01:53:02.894Z,67.03
2018-09-12T01:54:12.464Z,66.55
2018-09-12T01:55:21.777Z,67.13
2018-09-12T01:56:31.370Z,66.93
2018-09-12T01:57:40.945Z,66.84
2018-09-12T01:58:50.789Z,66.64
2018-09-12T02:00:00.631Z,66.3
2018-09-12T02:01:10.239Z,65.78
2018-09-12T02:02:19.817Z,65.3
2018-09-12T02:03:29.391Z,64.82
2018-09-12T02:04:38.967Z,64.92
2018-09-12T02:05:49.081Z,64.25
2018-09-12T02:06:58.654Z,64.43
2018-09-12T02:08:07.686Z,64.05
2018-09-12T02:09:17.536Z,63.57
2018-09-12T02:10:27.388Z,63.35
2018-09-12T02:11:37.232Z,63.16
2018-09-12T02:12:47.069Z,63.09
2018-09-12T02:13:57.176Z,62.58
2018-09-12T02:15:06.761Z,62.13
2018-09-12T02:16:16.632Z,61.72
2018-09-12T02:17:26.204Z,61.55
2018-09-12T02:18:36.314Z,62.68
2018-09-12T02:19:45.883Z,62.32
2018-09-12T02:20:55.462Z,62.42
2018-09-12T02:22:05.313Z,62.32
2018-09-12T02:23:15.424Z,61.75
2018-09-12T02:24:25.270Z,62.13
2018-09-12T02:25:34.847Z,62.32
2018-09-12T02:26:44.151Z,61.17
2018-09-12T02:27:54.002Z,61.17
2018-09-12T02:29:03.303Z,61.33
2018-09-12T02:30:13.156Z,61.46
2018-09-12T02:31:23.049Z,60.78
2018-09-12T02:32:32.628Z,61.46
2018-09-12T02:33:41.936Z,60.98
2018-09-12T02:34:51.246Z,61.08
2018-09-12T02:36:01.367Z,60.78
2018-09-12T02:37:10.959Z,61.33
2018-09-12T02:38:20.813Z,60.88
2018-09-12T02:39:30.954Z,60.88
2018-09-12T02:40:40.800Z,60.38
2018-09-12T02:41:50.927Z,59.89
2018-09-12T02:43:00.771Z,59.03
2018-09-12T02:44:10.921Z,58.74
2018-09-12T02:45:20.767Z,58.64
2018-09-12T02:46:30.617Z,58.26
2018-09-12T02:47:40.755Z,57.59
2018-09-12T02:48:50.607Z,57.68
2018-09-12T02:50:00.460Z,56.92
2018-09-12T02:51:10.039Z,56.73
2018-09-12T02:52:19.885Z,57.21
2018-09-12T02:53:28.919Z,57.01
2018-09-12T02:54:39.064Z,57.11
2018-09-12T02:55:48.636Z,57.21
2018-09-12T02:56:58.209Z,57.4
2018-09-12T02:58:08.051Z,57.11
2018-09-12T02:59:17.895Z,57.5
2018-09-12T03:00:28.011Z,57.21
2018-09-12T03:01:37.851Z,57.01
2018-09-12T03:02:47.966Z,57.11
2018-09-12T03:03:57.810Z,56.82
2018-09-12T03:05:07.382Z,56.82
2018-09-12T03:06:17.224Z,55.57
2018-09-12T03:07:26.796Z,55.57
2018-09-12T03:08:35.834Z,53.08
2018-09-12T03:09:45.678Z,52.12
2018-09-12T03:10:55.262Z,50.1
2018-09-12T03:12:04.886Z,48.28
2018-09-12T03:13:14.729Z,48.09
2018-09-12T03:14:24.036Z,47.51
2018-09-12T03:15:34.146Z,47.03
2018-09-12T03:16:43.791Z,45.01
2018-09-12T03:17:53.638Z,42.98
2018-09-12T03:19:03.763Z,41.63
2018-09-12T03:20:13.345Z,41.73
2018-09-12T03:21:23.187Z,39.72
2018-09-12T03:22:32.774Z,38.56
2018-09-12T03:23:42.382Z,39.43
2018-09-12T03:24:51.956Z,39.53
2018-09-12T03:26:01.808Z,38.18
2018-09-12T03:27:11.385Z,35.88
2018-09-12T03:28:21.245Z,34.92
2018-09-12T03:29:30.311Z,34.73
2018-09-12T03:30:39.896Z,33.77
2018-09-12T03:31:50.031Z,32.42
2018-09-12T03:32:59.888Z,30.99
2018-09-12T03:34:09.732Z,31.66
2018-09-12T03:35:19.565Z,30.99
2018-09-12T03:36:29.422Z,30.22
2018-09-12T03:37:39.264Z,30.12
2018-09-12T03:38:49.386Z,31.75
2018-09-12T03:39:58.968Z,32.14
2018-09-12T03:41:08.808Z,31.18
2018-09-12T03:42:18.656Z,32.62
2018-09-12T03:43:27.960Z,31.56
2018-09-12T03:44:37.688Z,31.18
2018-09-12T03:45:47.279Z,32.62
2018-09-12T03:46:56.901Z,31.56
2018-09-12T03:48:07.169Z,31.66
2018-09-12T03:49:16.873Z,29.55
2018-09-12T03:50:26.718Z,30.02
2018-09-12T03:51:36.293Z,30.32
2018-09-12T03:52:46.146Z,28.01
2018-09-12T03:53:56.286Z,27.63
2018-09-12T03:55:06.403Z,30.6
2018-09-12T03:56:15.705Z,32.41
2018-09-12T03:57:25.279Z,32.12
2018-09-12T03:58:35.388Z,33.37
2018-09-12T03:59:44.962Z,33.75
2018-09-12T04:00:54.828Z,33.19
2018-09-12T04:02:04.945Z,33.47
2018-09-12T04:03:14.785Z,33.56
2018-09-12T04:04:24.090Z,32.6
2018-09-12T04:05:34.206Z,32.12
2018-09-12T04:06:43.776Z,32.41
2018-09-12T04:07:53.622Z,32.31
2018-09-12T04:09:03.746Z,31.72
2018-09-12T04:10:13.593Z,31.24
2018-09-12T04:11:23.438Z,31.05
2018-09-12T04:12:33.554Z,31.43
2018-09-12T04:13:43.710Z,31.43
2018-09-12T04:14:53.551Z,32.59
2018-09-12T04:16:02.861Z,31.92
2018-09-12T04:17:12.456Z,30.67
2018-09-12T04:18:22.295Z,31.92
2018-09-12T04:19:31.604Z,31.34
2018-09-12T04:20:41.453Z,30
2018-09-12T04:21:50.767Z,30.38
2018-09-12T04:23:00.621Z,30.67
2018-09-12T04:24:10.802Z,31.63
2018-09-12T04:25:21.110Z,32.01
2018-09-12T04:26:30.689Z,32.59
2018-09-12T04:27:40.274Z,32.59
2018-09-12T04:28:49.580Z,32.1
2018-09-12T04:29:59.423Z,32.2
2018-09-12T04:31:09.273Z,31.82
2018-09-12T04:32:18.641Z,32.39
2018-09-12T04:33:27.948Z,32.01
2018-09-12T04:34:38.065Z,31.24
2018-09-12T04:35:47.912Z,30.96
2018-09-12T04:36:57.823Z,30.75
2018-09-12T04:38:07.415Z,29.88
2018-09-12T04:39:17.579Z,30.55
2018-09-12T04:40:27.691Z,30.84
2018-09-12T04:41:37.542Z,31.61
2018-09-12T04:42:47.347Z,32.18
2018-09-12T04:43:57.858Z,32.09
2018-09-12T04:45:08.022Z,32.38
2018-09-12T04:46:17.873Z,30.94
2018-09-12T04:47:27.445Z,30.65
2018-09-12T04:48:37.954Z,30.46
2018-09-12T04:49:48.168Z,30.84
2018-09-12T04:50:58.288Z,30.75
2018-09-12T04:52:07.874Z,30.36
2018-09-12T04:53:17.725Z,31.71
2018-09-12T04:54:27.034Z,31.99
2018-09-12T04:55:36.627Z,31.51
2018-09-12T04:56:46.468Z,31.8
2018-09-12T04:57:56.043Z,31.61
2018-09-12T04:59:06.161Z,30.55
2018-09-12T05:00:15.740Z,31.23
2018-09-12T05:01:25.325Z,31.42
2018-09-12T05:02:35.479Z,31.9
2018-09-12T05:03:45.616Z,33.14
2018-09-12T05:04:55.473Z,34.77
2018-09-12T05:06:05.596Z,33.53
2018-09-12T05:07:15.445Z,33.53
2018-09-12T05:08:25.071Z,33.53
2018-09-12T05:09:34.955Z,32.47
2018-09-12T05:10:44.802Z,32.86
2018-09-12T05:11:54.375Z,33.53
2018-09-12T05:13:04.549Z,33.53
2018-09-12T05:14:14.182Z,33.81
2018-09-12T05:15:24.317Z,33.03
2018-09-12T05:16:34.484Z,32.17
2018-09-12T05:17:44.623Z,32.65
2018-09-12T05:18:54.198Z,32.47
2018-09-12T05:20:04.093Z,32.55
2018-09-12T05:21:13.672Z,32.09
2018-09-12T05:22:23.252Z,31.88
2018-09-12T05:23:33.368Z,32.38
2018-09-12T05:24:42.937Z,31.79
2018-09-12T05:25:53.046Z,31.3
2018-09-12T05:27:02.910Z,30.73
2018-09-12T05:28:12.767Z,30.06
2018-09-12T05:29:22.910Z,30.44
2018-09-12T05:30:33.032Z,30.54
2018-09-12T05:31:42.912Z,29.3
2018-09-12T05:32:52.219Z,27.48
2018-09-12T05:34:01.805Z,27.58
2018-09-12T05:35:11.917Z,28.63
2018-09-12T05:36:21.558Z,26.9
2018-09-12T05:37:30.725Z,26.14
2018-09-12T05:38:40.815Z,25.46
2018-09-12T05:39:50.387Z,24.51
2018-09-12T05:41:00.226Z,22.69
2018-09-12T05:42:09.806Z,20.78
2018-09-12T05:43:19.728Z,19.05
2018-09-12T05:44:29.305Z,17.04
2018-09-12T05:45:38.604Z,16.65
2018-09-12T05:46:48.210Z,19.9
2018-09-12T05:47:57.785Z,20.49
2018-09-12T05:49:07.915Z,20.58
2018-09-12T05:50:17.959Z,19.43
2018-09-12T05:51:28.022Z,18.29
2018-09-12T05:52:37.564Z,18.18
2018-09-12T05:53:46.874Z,20.58
2018-09-12T05:54:56.451Z,20.87
2018-09-12T05:56:06.254Z,19.92
2018-09-12T05:57:16.102Z,19.52
2018-09-12T05:58:26.218Z,18.85
2018-09-12T05:59:36.301Z,18.08
2018-09-12T06:00:46.168Z,18.66
2018-09-12T06:01:56.016Z,19.42
2018-09-12T06:03:05.322Z,20.48
2018-09-12T06:04:14.897Z,20
2018-09-12T06:05:24.739Z,17.51
2018-09-12T06:06:34.464Z,16.36
2018-09-12T06:07:44.889Z,16.94
2018-09-12T06:08:55.025Z,16.94
2018-09-12T06:10:04.330Z,16.74
2018-09-12T06:11:14.170Z,19.62
2018-09-12T06:12:23.755Z,22.6
2018-09-12T06:13:33.905Z,23.17
2018-09-12T06:14:44.260Z,23.63
2018-09-12T06:15:54.100Z,23.73
2018-09-12T06:17:04.220Z,23.44
2018-09-12T06:18:13.791Z,22.68
2018-09-12T06:19:23.630Z,21.15
2018-09-12T06:20:33.196Z,21.44
2018-09-12T06:21:42.769Z,20.95
2018-09-12T06:22:52.348Z,19.42
2018-09-12T06:24:01.922Z,20.19
2018-09-12T06:25:11.489Z,20.37
2018-09-12T06:26:20.791Z,18.74
2018-09-12T06:27:30.904Z,19.13
2018-09-12T06:28:40.473Z,18.47
2018-09-12T06:29:49.904Z,19.42
2018-09-12T06:30:59.480Z,20.48
2018-09-12T06:32:09.592Z,19.33
2018-09-12T06:33:19.704Z,18.94
2018-09-12T06:34:29.544Z,18.37
2018-09-12T06:35:39.668Z,18.66
2018-09-12T06:36:49.611Z,22.01
2018-09-12T06:37:59.725Z,22.3
2018-09-12T06:39:09.299Z,22.68
2018-09-12T06:40:19.226Z,22.49
2018-09-12T06:41:28.805Z,22.97
2018-09-12T06:42:38.384Z,23.44
2018-09-12T06:43:48.256Z,23.63
2018-09-12T06:44:58.373Z,22.87
2018-09-12T06:46:08.213Z,22.3
2018-09-12T06:47:18.056Z,20.67
2018-09-12T06:48:28.162Z,19.8
2018-09-12T06:49:38.002Z,19.51
2018-09-12T06:50:47.572Z,19.51
2018-09-12T06:51:57.408Z,18.65
2018-09-12T06:53:07.264Z,16.93
2018-09-12T06:54:16.833Z,16.35
2018-09-12T06:55:26.141Z,15.49
2018-09-12T06:56:35.440Z,14.54
2018-09-12T06:57:45.007Z,13.68
2018-09-12T06:58:54.853Z,11.38
2018-09-12T07:00:03.885Z,11.09
2018-09-12T07:01:13.490Z,9.85
2018-09-12T07:02:23.343Z,7.07
2018-09-12T07:03:32.952Z,5.83
2018-09-12T07:04:42.529Z,5.54
2018-09-12T07:05:52.405Z,3.72
2018-09-12T07:07:02.011Z,4.11
2018-09-12T07:08:11.883Z,3.06
2018-09-12T07:09:21.194Z,2.87
2018-09-12T07:10:30.769Z,2.67
2018-09-12T07:11:40.340Z,2.29
2018-09-12T07:12:50.185Z,2.1
2018-09-12T07:13:59.771Z,1.91
2018-09-12T07:15:10.150Z,2.39
2018-09-12T07:16:19.995Z,3.34
2018-09-12T07:17:29.603Z,3.63
2018-09-12T07:18:38.633Z,2.77
2018-09-12T07:19:48.206Z,3.06
2018-09-12T07:20:57.781Z,2.67
2018-09-12T07:22:07.423Z,2.48
2018-09-12T07:23:17.263Z,2.1
2018-09-12T07:24:27.010Z,3.16
2018-09-12T07:25:37.973Z,0.67
2018-09-12T07:26:47.811Z,1.81
2018-09-12T07:27:57.654Z,0.29
2018-09-12T07:29:07.493Z,1.43
2018-09-12T07:30:17.094Z,2.39
2018-09-12T07:31:27.067Z,0.67
2018-09-12T07:32:37.221Z,0.38
2018-09-12T07:33:47.342Z,2.2
2018-09-12T07:34:57.189Z,1.43
2018-09-12T07:36:07.301Z,1.05
2018-09-12T07:37:16.910Z,0.67
2018-09-12T07:38:27.018Z,1.15
2018-09-12T07:39:36.854Z,0
2018-09-12T07:40:46.699Z,0
2018-09-12T07:41:56.269Z,1.34
2018-09-12T07:43:05.835Z,1.72
2018-09-12T07:44:15.960Z,1.81
2018-09-12T07:45:25.797Z,1.81
2018-09-12T07:46:35.094Z,1.43
2018-09-12T07:47:44.667Z,1.34
2018-09-12T07:48:54.893Z,1.34
2018-09-12T07:50:04.919Z,2.39
2018-09-12T07:51:14.494Z,1.72
2018-09-12T07:52:24.331Z,1.72
2018-09-12T07:53:33.905Z,1.72
2018-09-12T07:54:44.018Z,2.77
2018-09-12T07:55:54.240Z,2.2
2018-09-12T07:57:03.959Z,3.73
2018-09-12T07:58:13.809Z,2.96
2018-09-12T07:59:23.652Z,2.39
2018-09-12T08:00:33.831Z,3.16
2018-09-12T08:01:44.145Z,2.58
2018-09-12T08:02:53.727Z,1.91
2018-09-12T08:04:03.037Z,2.1
2018-09-12T08:05:13.432Z,1.24
2018-09-12T08:06:23.298Z,1.34
2018-09-12T08:07:33.406Z,0.67
2018-09-12T08:08:42.980Z,0.95
2018-09-12T08:09:52.828Z,2.29
2018-09-12T08:11:02.678Z,3.06
2018-09-12T08:12:12.725Z,2.48
2018-09-12T08:13:23.301Z,3.16
2018-09-12T08:14:32.634Z,4.11
2018-09-12T08:15:42.488Z,5.16
2018-09-12T08:16:52.741Z,4.69
2018-09-12T08:18:03.192Z,4.78
2018-09-12T08:19:12.919Z,5.74
2018-09-12T08:20:22.502Z,6.79
2018-09-12T08:21:32.339Z,7.46
2018-09-12T08:22:41.912Z,6.98
2018-09-12T08:23:51.489Z,6.02
2018-09-12T08:25:01.605Z,5.93
2018-09-12T08:26:11.350Z,6.98
2018-09-12T08:27:21.348Z,6.88
2018-09-12T08:28:30.917Z,5.83
2018-09-12T08:29:40.761Z,5.45
2018-09-12T08:30:50.334Z,4.11
2018-09-12T08:31:59.937Z,4.49
2018-09-12T08:33:09.839Z,4.21
2018-09-12T08:34:19.817Z,6.51
2018-09-12T08:35:29.123Z,6.79
2018-09-12T08:36:38.961Z,7.08
2018-09-12T08:37:48.810Z,5.65
2018-09-12T08:38:58.925Z,5.07
2018-09-12T08:40:08.768Z,3.83
2018-09-12T08:41:18.346Z,4.02
2018-09-12T08:42:28.584Z,4.21
2018-09-12T08:43:39.099Z,5.74
2018-09-12T08:44:48.950Z,5.74
2018-09-12T08:45:58.790Z,5.45
2018-09-12T08:47:08.362Z,4.49
2018-09-12T08:48:17.937Z,4.69
2018-09-12T08:49:27.780Z,6.02
2018-09-12T08:50:37.352Z,5.26
2018-09-12T08:51:46.926Z,5.45
2018-09-12T08:52:56.579Z,5.36
2018-09-12T08:54:07.199Z,4.59
2018-09-12T08:55:17.050Z,4.4
2018-09-12T08:56:26.624Z,5.45
2018-09-12T08:57:35.926Z,5.07
2018-09-12T08:58:46.045Z,5.36
2018-09-12T08:59:56.205Z,5.16
2018-09-12T09:01:06.326Z,5.45
2018-09-12T09:02:16.226Z,4.49
2018-09-12T09:03:26.077Z,4.97
2018-09-12T09:04:35.646Z,4.97
2018-09-12T09:05:45.907Z,4.4
2018-09-12T09:06:55.481Z,4.02
2018-09-12T09:08:04.780Z,4.02
2018-09-12T09:09:14.348Z,5.36
2018-09-12T09:10:23.683Z,5.36
2018-09-12T09:11:33.939Z,6.12
2018-09-12T09:12:43.806Z,6.7
2018-09-12T09:13:53.651Z,5.83
2018-09-12T09:15:03.495Z,5.74
2018-09-12T09:16:13.608Z,5.45
2018-09-12T09:17:22.443Z,5.93
2018-09-12T09:18:32.717Z,5.45
2018-09-12T09:19:42.568Z,5.16
2018-09-12T09:20:52.147Z,5.07
2018-09-12T09:22:01.719Z,4.3
2018-09-12T09:23:11.711Z,4.3
2018-09-12T09:24:20.747Z,4.3
2018-09-12T09:25:30.600Z,4.11
2018-09-12T09:26:40.723Z,4.21
2018-09-12T09:27:50.293Z,3.44
2018-09-12T09:29:00.140Z,3.63
2018-09-12T09:30:09.716Z,4.21
2018-09-12T09:31:19.838Z,4.97
2018-09-12T09:32:28.867Z,5.45
2018-09-12T09:33:38.873Z,4.97
2018-09-12T09:34:49.107Z,5.93
2018-09-12T09:35:59.318Z,6.22
2018-09-12T09:37:09.173Z,6.22
2018-09-12T09:38:18.746Z,4.6
2018-09-12T09:39:28.321Z,7.37
2018-09-12T09:40:38.433Z,7.46
2018-09-12T09:41:48.557Z,6.99
2018-09-12T09:42:58.786Z,6.7
2018-09-12T09:44:09.081Z,7.08
2018-09-12T09:45:19.271Z,5.83
2018-09-12T09:46:29.223Z,4.69
2018-09-12T09:47:39.359Z,7.37
2018-09-12T09:48:49.588Z,6.03
2018-09-12T09:49:59.455Z,7.56
2018-09-12T09:51:08.753Z,8.23
2018-09-12T09:52:18.477Z,7.85
2018-09-12T09:53:28.045Z,10.91
2018-09-12T09:54:38.357Z,8.81
2018-09-12T09:55:48.922Z,9.67
2018-09-12T09:56:58.224Z,8.23
2018-09-12T09:58:07.799Z,9.28
2018-09-12T09:59:17.917Z,9.77
2018-09-12T10:00:28.006Z,10.82
2018-09-12T10:01:38.044Z,11.87
2018-09-12T10:02:47.886Z,12.16
2018-09-12T10:03:57.998Z,13.12
2018-09-12T10:05:07.565Z,11.77
2018-09-12T10:06:17.410Z,10.24
2018-09-12T10:07:26.710Z,10.05
2018-09-12T10:08:36.556Z,10.34
2018-09-12T10:09:46.598Z,9.67
2018-09-12T10:10:56.712Z,9.19
2018-09-12T10:12:06.286Z,9.09
2018-09-12T10:13:16.136Z,10.91
2018-09-12T10:14:25.721Z,10.34
2018-09-12T10:15:35.596Z,10.34
2018-09-12T10:16:45.178Z,10.43
2018-09-12T10:17:54.746Z,9.95
2018-09-12T10:19:04.589Z,11.39
2018-09-12T10:20:14.707Z,11.68
2018-09-12T10:21:24.614Z,12.54
2018-09-12T10:22:34.465Z,11.58
2018-09-12T10:23:44.026Z,9.67
2018-09-12T10:24:53.593Z,10.14
2018-09-12T10:26:02.903Z,10.43
2018-09-12T10:27:12.486Z,13.02
2018-09-12T10:28:22.060Z,12.73
2018-09-12T10:29:32.169Z,14.17
2018-09-12T10:30:42.057Z,13.98
2018-09-12T10:31:52.175Z,12.64
2018-09-12T10:33:01.751Z,13.21
2018-09-12T10:34:11.872Z,13.31
2018-09-12T10:35:21.731Z,13.12
2018-09-12T10:36:31.844Z,13.02
2018-09-12T10:37:41.428Z,13.21
2018-09-12T10:38:50.999Z,15.52
2018-09-12T10:40:00.576Z,16.96
2018-09-12T10:41:10.303Z,19.16
2018-09-12T10:42:20.444Z,20.31
2018-09-12T10:43:30.016Z,21.84
2018-09-12T10:44:40.135Z,23.37
2018-09-12T10:45:49.445Z,25.67
2018-09-12T10:46:59.016Z,26.34
2018-09-12T10:48:09.180Z,24.43
2018-09-12T10:49:19.341Z,25.1
2018-09-12T10:50:28.914Z,25.67
2018-09-12T10:51:38.752Z,23.57
2018-09-12T10:52:47.780Z,22.41
2018-09-12T10:53:57.634Z,22.32
2018-09-12T10:55:07.749Z,25.19
2018-09-12T10:56:17.862Z,25.29
2018-09-12T10:57:27.704Z,27.59
2018-09-12T10:58:37.554Z,27.12
2018-09-12T10:59:47.673Z,25.4
2018-09-12T11:00:56.978Z,27.98
2018-09-12T11:02:06.580Z,29.23
2018-09-12T11:03:16.422Z,28.56
2018-09-12T11:04:26.258Z,27.5
2018-09-12T11:05:36.618Z,26.53
2018-09-12T11:06:46.482Z,26.35
2018-09-12T11:07:56.633Z,25.2
2018-09-12T11:09:06.504Z,24.14
2018-09-12T11:10:16.612Z,25.3
2018-09-12T11:11:26.726Z,23.86
2018-09-12T11:12:36.839Z,24.24
2018-09-12T11:13:47.003Z,23.66
2018-09-12T11:14:56.573Z,21.94
2018-09-12T11:16:06.144Z,21.94
2018-09-12T11:17:16.255Z,21.08
2018-09-12T11:18:26.392Z,21.75
2018-09-12T11:19:36.541Z,22.61
2018-09-12T11:20:46.391Z,23.38
2018-09-12T11:21:56.245Z,23.18
2018-09-12T11:23:06.094Z,22.22
2018-09-12T11:24:15.937Z,21.26
2018-09-12T11:25:25.510Z,21.36
2018-09-12T11:26:34.811Z,22.51
2018-09-12T11:27:44.923Z,20.59
2018-09-12T11:28:54.742Z,20.21
2018-09-12T11:30:04.080Z,18.01
2018-09-12T11:31:13.928Z,20.02
2018-09-12T11:32:24.050Z,21.07
2018-09-12T11:33:33.891Z,20.59
2018-09-12T11:34:43.736Z,18.39
2018-09-12T11:35:53.858Z,18.2
2018-09-12T11:37:03.870Z,17.62
2018-09-12T11:38:13.441Z,19.45
2018-09-12T11:39:23.013Z,19.82
2018-09-12T11:40:32.858Z,19.82
2018-09-12T11:41:42.993Z,18.87
2018-09-12T11:42:52.835Z,18.77
2018-09-12T11:44:02.436Z,19.16
2018-09-12T11:45:12.553Z,18.58
2018-09-12T11:46:22.125Z,18.68
2018-09-12T11:47:31.964Z,19.25
2018-09-12T11:48:42.085Z,18.96
2018-09-12T11:49:51.927Z,18.29
2018-09-12T11:51:01.773Z,17.82
2018-09-12T11:52:11.623Z,16.76
2018-09-12T11:53:21.463Z,16.19
2018-09-12T11:54:31.067Z,15.61
2018-09-12T11:55:40.805Z,15.9
2018-09-12T11:56:50.669Z,15.41
2018-09-12T11:58:00.516Z,13.31
2018-09-12T11:59:09.543Z,12.06
2018-09-12T12:00:19.320Z,13.12
2018-09-12T12:01:29.435Z,12.07
2018-09-12T12:02:39.006Z,9.67
2018-09-12T12:03:49.133Z,3.35
2018-09-12T12:04:58.719Z,0.19
2018-09-12T12:06:08.975Z,0.86
2018-09-12T12:07:19.091Z,3.35
2018-09-12T12:08:28.932Z,3.16
2018-09-12T12:09:38.503Z,1.91
2018-09-12T12:10:48.346Z,1.15
2018-09-12T12:11:58.465Z,0
2018-09-12T12:13:08.311Z,0
2018-09-12T12:14:18.430Z,0.19
2018-09-12T12:15:28.163Z,0
2018-09-12T12:16:37.747Z,0.09
2018-09-12T12:17:47.532Z,0
2018-09-12T12:18:57.412Z,0
2018-09-12T12:20:06.741Z,1.05
2018-09-12T12:21:16.043Z,0.67
2018-09-12T12:22:25.889Z,0.95
2018-09-12T12:23:35.388Z,3.25
2018-09-12T12:24:44.962Z,3.74
2018-09-12T12:25:55.093Z,1.34
2018-09-12T12:27:04.406Z,2.87
2018-09-12T12:28:14.255Z,3.74
2018-09-12T12:29:23.978Z,3.92
2018-09-12T12:30:33.860Z,4.98
2018-09-12T12:31:43.698Z,4.69
2018-09-12T12:32:53.819Z,4.11
2018-09-12T12:34:03.120Z,3.54
2018-09-12T12:35:12.750Z,3.44
2018-09-12T12:36:22.436Z,3.06
2018-09-12T12:37:32.285Z,1.24
2018-09-12T12:38:41.589Z,0
2018-09-12T12:39:51.445Z,0
2018-09-12T12:41:00.751Z,1.43
2018-09-12T12:42:10.951Z,1.62
2018-09-12T12:43:20.522Z,0
2018-09-12T12:44:30.092Z,0
2018-09-12T12:45:39.931Z,0
2018-09-12T12:46:49.503Z,0
2018-09-12T12:47:59.081Z,0
2018-09-12T12:49:08.674Z,0
2018-09-12T12:50:18.521Z,0
2018-09-12T12:51:28.403Z,0
2018-09-12T12:52:38.523Z,0
2018-09-12T12:53:48.369Z,0
2018-09-12T12:54:58.204Z,0.19
2018-09-12T12:56:08.064Z,1.72
2018-09-12T12:57:17.964Z,1.15
2018-09-12T12:58:27.213Z,2.77
2018-09-12T12:59:37.065Z,3.54
2018-09-12T13:00:46.641Z,2.11
2018-09-12T13:01:56.266Z,3.35
2018-09-12T13:03:06.108Z,1.25
2018-09-12T13:04:16.224Z,0
2018-09-12T13:05:26.402Z,0.95
2018-09-12T13:06:36.344Z,3.25
2018-09-12T13:07:46.211Z,3.64
2018-09-12T13:08:56.084Z,1.53
2018-09-12T13:10:05.936Z,5.46
2018-09-12T13:11:15.785Z,4.31
2018-09-12T13:12:25.353Z,7.56
2018-09-12T13:13:34.925Z,8.72
2018-09-12T13:14:45.023Z,4.4
2018-09-12T13:15:54.918Z,8.14
2018-09-12T13:17:04.222Z,13.89
2018-09-12T13:18:14.061Z,13.12
2018-09-12T13:19:23.932Z,13.21
2018-09-12T13:20:33.785Z,13.51
2018-09-12T13:21:44.296Z,16.66
2018-09-12T13:22:54.729Z,14.56
2018-09-12T13:24:04.342Z,15.61
2018-09-12T13:25:13.926Z,13.12
2018-09-12T13:26:23.777Z,13.6
2018-09-12T13:27:33.412Z,11.11
2018-09-12T13:28:42.741Z,13.42
2018-09-12T13:29:52.605Z,13.03
2018-09-12T13:31:01.978Z,13.32
2018-09-12T13:32:11.290Z,13.21
2018-09-12T13:33:20.688Z,13.03
2018-09-12T13:34:30.366Z,11.6
2018-09-12T13:35:40.655Z,11.59
2018-09-12T13:36:50.343Z,14.84
2018-09-12T13:38:00.562Z,14.46
2018-09-12T13:39:10.410Z,12.64
2018-09-12T13:40:20.335Z,13.6
2018-09-12T13:41:29.920Z,14.17
2018-09-12T13:42:39.225Z,11.49
2018-09-12T13:43:49.355Z,13.12
2018-09-12T13:44:58.982Z,13.51
2018-09-12T13:46:08.837Z,11.4
2018-09-12T13:47:18.159Z,9.67
2018-09-12T13:48:28.011Z,11.21
2018-09-12T13:49:37.867Z,9.86
2018-09-12T13:50:47.445Z,7.47
2018-09-12T13:51:57.301Z,7.56
2018-09-12T13:53:07.176Z,7.86
2018-09-12T13:54:16.494Z,4.98
2018-09-12T13:55:26.114Z,2.68
2018-09-12T13:56:36.450Z,3.92
2018-09-12T13:57:46.849Z,3.45
2018-09-12T13:58:56.433Z,3.06
2018-09-12T14:00:06.309Z,4.5
2018-09-12T14:01:15.349Z,10.63
2018-09-12T14:02:24.927Z,11.21
2018-09-12T14:03:33.969Z,11.4
2018-09-12T14:04:43.552Z,11.11
2018-09-12T14:05:52.859Z,8.62
2018-09-12T14:07:02.441Z,10.73
2018-09-12T14:08:12.288Z,12.36
2018-09-12T14:09:22.164Z,11.21
2018-09-12T14:10:32.431Z,10.25
2018-09-12T14:11:42.276Z,12.74
2018-09-12T14:12:51.850Z,12.36
2018-09-12T14:14:01.996Z,15.43
2018-09-12T14:15:11.569Z,14.85
2018-09-12T14:16:21.461Z,12.74
2018-09-12T14:17:31.299Z,13.89
2018-09-12T14:18:41.137Z,15.43
2018-09-12T14:19:51.245Z,15.72
2018-09-12T14:21:00.820Z,15.33
2018-09-12T14:22:10.663Z,18.21
2018-09-12T14:23:20.245Z,24.15
2018-09-12T14:24:29.823Z,21.45
2018-09-12T14:25:39.403Z,22.41
2018-09-12T14:26:49.250Z,22.99
2018-09-12T14:27:59.096Z,24.15
2018-09-12T14:29:08.988Z,27.2
2018-09-12T14:30:18.288Z,27.3
2018-09-12T14:31:27.859Z,28.45
2018-09-12T14:32:37.161Z,25.77
2018-09-12T14:33:46.739Z,25.1
2018-09-12T14:34:56.343Z,24.04
2018-09-12T14:36:05.925Z,24.81
2018-09-12T14:37:16.034Z,24.43
2018-09-12T14:38:25.612Z,24.62
2018-09-12T14:39:35.837Z,25.87
2018-09-12T14:40:46.011Z,24.54
2018-09-12T14:41:55.878Z,24.15
2018-09-12T14:43:05.685Z,23.48
2018-09-12T14:44:15.532Z,20.51
2018-09-12T14:45:25.104Z,22.42
2018-09-12T14:46:34.949Z,20.89
2018-09-12T14:47:45.059Z,21.56
2018-09-12T14:48:54.364Z,21.28
2018-09-12T14:50:03.942Z,21.18
2018-09-12T14:51:14.061Z,20.51
2018-09-12T14:52:23.909Z,18.4
2018-09-12T14:53:34.023Z,18.98
2018-09-12T14:54:44.142Z,20.32
2018-09-12T14:55:54.251Z,21.95
2018-09-12T14:57:03.563Z,21.56
2018-09-12T14:58:13.413Z,24.24
2018-09-12T14:59:23.527Z,23.1
2018-09-12T15:00:32.571Z,23.96
2018-09-12T15:01:42.420Z,23.28
2018-09-12T15:02:51.987Z,22.14
2018-09-12T15:04:02.100Z,22.33
2018-09-12T15:05:11.942Z,21.18
2018-09-12T15:06:21.788Z,20.98
2018-09-12T15:07:31.635Z,21.18
2018-09-12T15:08:40.935Z,23.19
2018-09-12T15:09:51.050Z,23.38
2018-09-12T15:11:00.671Z,24.34
2018-09-12T15:12:10.242Z,25.68